sensor_id;sensor_type;location;lat;lon;timestamp;pressure;altitude;pressure_sealevel;temperature;humidity
44103;BME280;29769;42.178;24.742;2023-09-18T00:00:07;100115.84;;;19.68;100.00
44103;BME280;29769;42.178;24.742;2023-09-18T00:02:56;100107.84;;;19.68;100.00
44103;BME280;29769;42.178;24.742;2023-09-18T00:05:40;100109.59;;;19.69;100.00
44103;BME280;29769;42.178;24.742;2023-09-18T00:08:25;100099.72;;;19.71;100.00
44103;BME280;29769;42.178;24.742;2023-09-18T00:11:09;100101.16;;;19.78;100.00
44103;BME280;29769;42.178;24.742;2023-09-18T00:13:55;100103.31;;;19.70;100.00
44103;BME280;29769;42.178;24.742;2023-09-18T00:16:40;100095.88;;;19.77;100.00
44103;BME280;29769;42.178;24.742;2023-09-18T00:19:24;100098.22;;;19.84;100.00
44103;BME280;29769;42.178;24.742;2023-09-18T00:22:09;100099.69;;;19.90;100.00
44103;BME280;29769;42.178;24.742;2023-09-18T00:24:54;100100.22;;;19.98;100.00
44103;BME280;29769;42.178;24.742;2023-09-18T00:27:39;100103.63;;;20.02;100.00
44103;BME280;29769;42.178;24.742;2023-09-18T00:30:23;100094.91;;;19.98;100.00
44103;BME280;29769;42.178;24.742;2023-09-18T00:33:09;100101.94;;;19.99;100.00
44103;BME280;29769;42.178;24.742;2023-09-18T00:35:53;100103.63;;;20.02;100.00
44103;BME280;29769;42.178;24.742;2023-09-18T00:38:38;100098.22;;;20.03;100.00
44103;BME280;29769;42.178;24.742;2023-09-18T00:41:23;100103.19;;;20.11;100.00
44103;BME280;29769;42.178;24.742;2023-09-18T00:44:07;100100.56;;;20.09;100.00
44103;BME280;29769;42.178;24.742;2023-09-18T00:46:52;100101.00;;;20.19;100.00
44103;BME280;29769;42.178;24.742;2023-09-18T00:49:39;100099.91;;;20.23;100.00
44103;BME280;29769;42.178;24.742;2023-09-18T00:52:24;100094.72;;;20.20;100.00
44103;BME280;29769;42.178;24.742;2023-09-18T00:55:09;100098.41;;;20.17;100.00
44103;BME280;29769;42.178;24.742;2023-09-18T00:57:55;100096.31;;;20.05;100.00
44103;BME280;29769;42.178;24.742;2023-09-18T01:00:39;100097.13;;;20.07;100.00
44103;BME280;29769;42.178;24.742;2023-09-18T01:03:25;100087.66;;;20.00;100.00
44103;BME280;29769;42.178;24.742;2023-09-18T01:06:09;100095.38;;;19.87;100.00
44103;BME280;29769;42.178;24.742;2023-09-18T01:08:53;100089.19;;;19.87;100.00
44103;BME280;29769;42.178;24.742;2023-09-18T01:14:44;100086.06;;;19.77;100.00
44103;BME280;29769;42.178;24.742;2023-09-18T01:17:36;100098.47;;;19.78;100.00
44103;BME280;29769;42.178;24.742;2023-09-18T01:20:24;100096.47;;;19.83;100.00
44103;BME280;29769;42.178;24.742;2023-09-18T01:23:10;100090.97;;;19.86;100.00
44103;BME280;29769;42.178;24.742;2023-09-18T01:25:56;100095.66;;;19.81;100.00
44103;BME280;29769;42.178;24.742;2023-09-18T01:28:40;100090.25;;;19.83;100.00
44103;BME280;29769;42.178;24.742;2023-09-18T01:31:25;100093.75;;;19.85;100.00
44103;BME280;29769;42.178;24.742;2023-09-18T01:34:10;100088.47;;;19.83;100.00
44103;BME280;29769;42.178;24.742;2023-09-18T01:36:55;100088.69;;;19.79;100.00
44103;BME280;29769;42.178;24.742;2023-09-18T01:39:40;100091.34;;;19.79;100.00
44103;BME280;29769;42.178;24.742;2023-09-18T01:42:28;100092.28;;;19.78;100.00
44103;BME280;29769;42.178;24.742;2023-09-18T01:45:13;100088.94;;;19.73;100.00
44103;BME280;29769;42.178;24.742;2023-09-18T01:47:58;100092.22;;;19.79;100.00
44103;BME280;29769;42.178;24.742;2023-09-18T01:50:42;100097.63;;;19.78;100.00
44103;BME280;29769;42.178;24.742;2023-09-18T01:53:27;100097.81;;;19.73;100.00
44103;BME280;29769;42.178;24.742;2023-09-18T01:56:12;100091.06;;;19.85;100.00
44103;BME280;29769;42.178;24.742;2023-09-18T01:58:57;100096.19;;;19.89;100.00
44103;BME280;29769;42.178;24.742;2023-09-18T02:01:41;100093.88;;;19.82;100.00
44103;BME280;29769;42.178;24.742;2023-09-18T02:04:26;100090.41;;;19.80;100.00
44103;BME280;29769;42.178;24.742;2023-09-18T02:07:11;100094.16;;;19.76;100.00
44103;BME280;29769;42.178;24.742;2023-09-18T02:09:56;100100.78;;;19.67;100.00
44103;BME280;29769;42.178;24.742;2023-09-18T02:12:40;100098.91;;;19.69;100.00
44103;BME280;29769;42.178;24.742;2023-09-18T02:15:25;100094.38;;;19.71;100.00
44103;BME280;29769;42.178;24.742;2023-09-18T02:18:09;100097.13;;;19.70;100.00
44103;BME280;29769;42.178;24.742;2023-09-18T02:20:54;100103.75;;;19.61;100.00
44103;BME280;29769;42.178;24.742;2023-09-18T02:23:38;100100.16;;;19.62;100.00
44103;BME280;29769;42.178;24.742;2023-09-18T02:26:23;100100.50;;;19.73;100.00
44103;BME280;29769;42.178;24.742;2023-09-18T02:29:09;100102.19;;;19.76;100.00
44103;BME280;29769;42.178;24.742;2023-09-18T02:31:55;100103.66;;;19.81;100.00
44103;BME280;29769;42.178;24.742;2023-09-18T02:34:40;100097.13;;;19.88;100.00
44103;BME280;29769;42.178;24.742;2023-09-18T02:37:24;100097.69;;;19.95;100.00
44103;BME280;29769;42.178;24.742;2023-09-18T02:40:09;100102.81;;;19.99;100.00
44103;BME280;29769;42.178;24.742;2023-09-18T02:42:54;100097.78;;;19.93;100.00
44103;BME280;29769;42.178;24.742;2023-09-18T02:45:39;100093.16;;;19.97;100.00
44103;BME280;29769;42.178;24.742;2023-09-18T02:48:24;100093.22;;;19.95;100.00
44103;BME280;29769;42.178;24.742;2023-09-18T02:51:09;100107.28;;;19.99;100.00
44103;BME280;29769;42.178;24.742;2023-09-18T02:53:54;100109.38;;;19.92;100.00
44103;BME280;29769;42.178;24.742;2023-09-18T02:56:39;100102.69;;;20.03;100.00
44103;BME280;29769;42.178;24.742;2023-09-18T02:59:25;100110.47;;;20.07;100.00
44103;BME280;29769;42.178;24.742;2023-09-18T03:02:09;100106.28;;;20.02;100.00
44103;BME280;29769;42.178;24.742;2023-09-18T03:04:54;100111.63;;;20.02;100.00
44103;BME280;29769;42.178;24.742;2023-09-18T03:07:38;100107.66;;;20.10;100.00
44103;BME280;29769;42.178;24.742;2023-09-18T03:10:23;100111.19;;;20.11;100.00
44103;BME280;29769;42.178;24.742;2023-09-18T03:13:08;100113.66;;;20.15;100.00
44103;BME280;29769;42.178;24.742;2023-09-18T03:15:53;100109.44;;;20.10;100.00
44103;BME280;29769;42.178;24.742;2023-09-18T03:18:38;100118.28;;;20.12;100.00
44103;BME280;29769;42.178;24.742;2023-09-18T03:21:23;100117.19;;;20.16;100.00
44103;BME280;29769;42.178;24.742;2023-09-18T03:24:08;100112.72;;;20.16;100.00
44103;BME280;29769;42.178;24.742;2023-09-18T03:26:52;100110.75;;;20.20;100.00
44103;BME280;29769;42.178;24.742;2023-09-18T03:29:37;100106.84;;;20.27;100.00
44103;BME280;29769;42.178;24.742;2023-09-18T03:32:22;100106.19;;;20.22;100.00
44103;BME280;29769;42.178;24.742;2023-09-18T03:35:06;100106.56;;;20.14;100.00
44103;BME280;29769;42.178;24.742;2023-09-18T03:37:53;100109.72;;;20.22;100.00
44103;BME280;29769;42.178;24.742;2023-09-18T03:40:39;100122.81;;;20.28;100.00
44103;BME280;29769;42.178;24.742;2023-09-18T03:43:24;100112.28;;;20.25;100.00
44103;BME280;29769;42.178;24.742;2023-09-18T03:46:08;100107.28;;;20.18;100.00
44103;BME280;29769;42.178;24.742;2023-09-18T03:49:02;100111.63;;;20.20;100.00
44103;BME280;29769;42.178;24.742;2023-09-18T03:51:49;100113.84;;;20.29;100.00
44103;BME280;29769;42.178;24.742;2023-09-18T03:54:34;100112.34;;;20.24;100.00
44103;BME280;29769;42.178;24.742;2023-09-18T03:57:18;100116.66;;;20.26;100.00
44103;BME280;29769;42.178;24.742;2023-09-18T04:00:04;100116.31;;;20.15;100.00
44103;BME280;29769;42.178;24.742;2023-09-18T04:02:56;100121.16;;;20.07;100.00
44103;BME280;29769;42.178;24.742;2023-09-18T04:05:41;100120.94;;;20.12;100.00
44103;BME280;29769;42.178;24.742;2023-09-18T04:08:25;100123.53;;;20.13;100.00
44103;BME280;29769;42.178;24.742;2023-09-18T04:11:10;100118.81;;;20.18;100.00
44103;BME280;29769;42.178;24.742;2023-09-18T04:13:55;100120.50;;;20.21;100.00
44103;BME280;29769;42.178;24.742;2023-09-18T04:16:40;100125.69;;;20.24;100.00
44103;BME280;29769;42.178;24.742;2023-09-18T04:19:26;100126.34;;;20.29;100.00
44103;BME280;29769;42.178;24.742;2023-09-18T04:22:11;100128.22;;;20.27;100.00
44103;BME280;29769;42.178;24.742;2023-09-18T04:24:56;100124.59;;;20.28;100.00
44103;BME280;29769;42.178;24.742;2023-09-18T04:27:40;100121.59;;;20.17;100.00
44103;BME280;29769;42.178;24.742;2023-09-18T04:30:25;100124.31;;;20.15;100.00
44103;BME280;29769;42.178;24.742;2023-09-18T04:33:10;100118.63;;;20.04;100.00
44103;BME280;29769;42.178;24.742;2023-09-18T04:35:57;100126.72;;;20.03;100.00
44103;BME280;29769;42.178;24.742;2023-09-18T04:38:41;100120.84;;;19.94;100.00
44103;BME280;29769;42.178;24.742;2023-09-18T04:41:26;100113.06;;;20.09;100.00
44103;BME280;29769;42.178;24.742;2023-09-18T04:44:12;100120.13;;;20.10;100.00
44103;BME280;29769;42.178;24.742;2023-09-18T04:46:58;100118.94;;;20.17;100.00
44103;BME280;29769;42.178;24.742;2023-09-18T04:49:44;100121.06;;;20.27;100.00
44103;BME280;29769;42.178;24.742;2023-09-18T04:52:31;100123.97;;;20.41;100.00
44103;BME280;29769;42.178;24.742;2023-09-18T04:55:16;100123.44;;;20.52;100.00
44103;BME280;29769;42.178;24.742;2023-09-18T04:58:01;100123.22;;;20.57;100.00
44103;BME280;29769;42.178;24.742;2023-09-18T05:00:46;100131.34;;;20.72;100.00
44103;BME280;29769;42.178;24.742;2023-09-18T05:03:32;100117.59;;;20.80;100.00
44103;BME280;29769;42.178;24.742;2023-09-18T05:06:18;100130.75;;;20.84;100.00
44103;BME280;29769;42.178;24.742;2023-09-18T05:09:02;100131.44;;;20.88;100.00
44103;BME280;29769;42.178;24.742;2023-09-18T05:11:47;100129.88;;;21.01;100.00
44103;BME280;29769;42.178;24.742;2023-09-18T05:14:33;100130.41;;;21.08;100.00
44103;BME280;29769;42.178;24.742;2023-09-18T05:17:18;100131.34;;;21.25;100.00
44103;BME280;29769;42.178;24.742;2023-09-18T05:20:03;100133.91;;;21.27;100.00
44103;BME280;29769;42.178;24.742;2023-09-18T05:22:49;100136.50;;;21.28;100.00
44103;BME280;29769;42.178;24.742;2023-09-18T05:25:34;100122.34;;;21.44;100.00
44103;BME280;29769;42.178;24.742;2023-09-18T05:28:22;100127.44;;;21.48;100.00
44103;BME280;29769;42.178;24.742;2023-09-18T05:31:07;100126.78;;;21.60;100.00
44103;BME280;29769;42.178;24.742;2023-09-18T05:33:52;100128.72;;;21.74;100.00
44103;BME280;29769;42.178;24.742;2023-09-18T05:36:37;100122.94;;;21.82;100.00
44103;BME280;29769;42.178;24.742;2023-09-18T05:39:21;100112.91;;;21.85;100.00
44103;BME280;29769;42.178;24.742;2023-09-18T05:42:06;100113.66;;;22.04;100.00
44103;BME280;29769;42.178;24.742;2023-09-18T05:44:50;100111.53;;;22.11;100.00
44103;BME280;29769;42.178;24.742;2023-09-18T05:47:35;100112.13;;;22.32;100.00
44103;BME280;29769;42.178;24.742;2023-09-18T05:50:22;100121.03;;;22.79;100.00
44103;BME280;29769;42.178;24.742;2023-09-18T05:53:09;100117.22;;;23.57;100.00
44103;BME280;29769;42.178;24.742;2023-09-18T05:55:54;100119.75;;;24.44;100.00
44103;BME280;29769;42.178;24.742;2023-09-18T05:58:40;100124.06;;;25.12;90.74
44103;BME280;29769;42.178;24.742;2023-09-18T06:01:25;100114.75;;;25.94;81.44
44103;BME280;29769;42.178;24.742;2023-09-18T06:04:10;100121.81;;;26.07;75.72
44103;BME280;29769;42.178;24.742;2023-09-18T06:06:55;100126.53;;;25.80;74.63
44103;BME280;29769;42.178;24.742;2023-09-18T06:09:41;100120.41;;;25.65;73.70
44103;BME280;29769;42.178;24.742;2023-09-18T06:12:26;100124.72;;;26.17;70.98
44103;BME280;29769;42.178;24.742;2023-09-18T06:15:10;100123.72;;;26.67;67.57
44103;BME280;29769;42.178;24.742;2023-09-18T06:17:56;100129.25;;;26.89;66.58
44103;BME280;29769;42.178;24.742;2023-09-18T06:20:40;100137.19;;;26.80;65.56
44103;BME280;29769;42.178;24.742;2023-09-18T06:23:25;100139.69;;;26.46;66.31
44103;BME280;29769;42.178;24.742;2023-09-18T06:26:10;100136.41;;;26.54;64.49
44103;BME280;29769;42.178;24.742;2023-09-18T06:28:54;100135.88;;;26.25;64.39
44103;BME280;29769;42.178;24.742;2023-09-18T06:31:39;100141.00;;;26.41;64.29
44103;BME280;29769;42.178;24.742;2023-09-18T06:34:24;100137.25;;;26.18;64.08
44103;BME280;29769;42.178;24.742;2023-09-18T06:37:09;100138.91;;;25.83;66.89
44103;BME280;29769;42.178;24.742;2023-09-18T06:39:56;100152.56;;;25.42;68.38
44103;BME280;29769;42.178;24.742;2023-09-18T06:42:41;100153.41;;;25.30;70.74
44103;BME280;29769;42.178;24.742;2023-09-18T06:45:30;100152.63;;;25.15;70.70
44103;BME280;29769;42.178;24.742;2023-09-18T06:48:15;100150.59;;;25.18;71.29
44103;BME280;29769;42.178;24.742;2023-09-18T06:51:01;100147.56;;;25.75;68.59
44103;BME280;29769;42.178;24.742;2023-09-18T06:53:45;100148.91;;;25.43;69.41
44103;BME280;29769;42.178;24.742;2023-09-18T06:56:30;100149.72;;;25.18;69.77
44103;BME280;29769;42.178;24.742;2023-09-18T06:59:15;100149.72;;;25.31;69.68
44103;BME280;29769;42.178;24.742;2023-09-18T07:02:00;100140.84;;;26.06;66.17
44103;BME280;29769;42.178;24.742;2023-09-18T07:04:45;100141.22;;;27.33;60.30
44103;BME280;29769;42.178;24.742;2023-09-18T07:07:30;100128.44;;;27.92;55.93
44103;BME280;29769;42.178;24.742;2023-09-18T07:10:15;100132.22;;;28.45;53.55
44103;BME280;29769;42.178;24.742;2023-09-18T07:13:00;100129.56;;;28.77;52.58
44103;BME280;29769;42.178;24.742;2023-09-18T07:15:45;100132.78;;;29.55;47.96
44103;BME280;29769;42.178;24.742;2023-09-18T07:18:29;100132.44;;;30.89;43.55
44103;BME280;29769;42.178;24.742;2023-09-18T07:21:14;100128.72;;;30.71;44.02
44103;BME280;29769;42.178;24.742;2023-09-18T07:23:58;100141.13;;;30.15;44.92
44103;BME280;29769;42.178;24.742;2023-09-18T07:26:46;100137.47;;;30.75;44.15
44103;BME280;29769;42.178;24.742;2023-09-18T07:29:31;100135.72;;;32.44;40.05
44103;BME280;29769;42.178;24.742;2023-09-18T07:32:15;100140.84;;;33.45;37.91
44103;BME280;29769;42.178;24.742;2023-09-18T07:35:00;100142.25;;;33.49;37.27
44103;BME280;29769;42.178;24.742;2023-09-18T07:37:45;100146.19;;;33.11;37.81
44103;BME280;29769;42.178;24.742;2023-09-18T07:40:31;100143.22;;;32.87;37.79
44103;BME280;29769;42.178;24.742;2023-09-18T07:43:15;100144.41;;;32.30;38.73
44103;BME280;29769;42.178;24.742;2023-09-18T07:46:00;100142.41;;;31.85;39.32
44103;BME280;29769;42.178;24.742;2023-09-18T07:48:46;100150.09;;;31.14;41.20
44103;BME280;29769;42.178;24.742;2023-09-18T07:51:30;100138.91;;;31.08;40.75
44103;BME280;29769;42.178;24.742;2023-09-18T07:54:15;100139.16;;;30.76;41.14
44103;BME280;29769;42.178;24.742;2023-09-18T07:57:03;100136.19;;;31.37;39.32
44103;BME280;29769;42.178;24.742;2023-09-18T07:59:47;100137.03;;;32.12;38.79
44103;BME280;29769;42.178;24.742;2023-09-18T08:02:32;100143.59;;;32.92;37.23
44103;BME280;29769;42.178;24.742;2023-09-18T08:05:16;100139.28;;;33.86;35.40
44103;BME280;29769;42.178;24.742;2023-09-18T08:08:01;100133.75;;;34.04;35.46
44103;BME280;29769;42.178;24.742;2023-09-18T08:10:50;100134.19;;;34.17;33.91
44103;BME280;29769;42.178;24.742;2023-09-18T08:13:34;100133.22;;;33.66;35.15
44103;BME280;29769;42.178;24.742;2023-09-18T08:16:20;100117.78;;;34.51;34.52
44103;BME280;29769;42.178;24.742;2023-09-18T08:19:05;100134.53;;;33.88;34.92
44103;BME280;29769;42.178;24.742;2023-09-18T08:21:50;100128.72;;;33.83;34.11
44103;BME280;29769;42.178;24.742;2023-09-18T08:24:36;100127.06;;;33.98;33.95
44103;BME280;29769;42.178;24.742;2023-09-18T08:27:20;100117.63;;;34.52;33.42
44103;BME280;29769;42.178;24.742;2023-09-18T08:30:05;100093.38;;;35.95;31.55
44103;BME280;29769;42.178;24.742;2023-09-18T08:32:50;100113.69;;;36.55;30.12
44103;BME280;29769;42.178;24.742;2023-09-18T08:35:34;100116.22;;;36.26;30.69
44103;BME280;29769;42.178;24.742;2023-09-18T08:38:19;100110.03;;;36.94;29.19
44103;BME280;29769;42.178;24.742;2023-09-18T08:41:04;100115.69;;;37.75;28.57
44103;BME280;29769;42.178;24.742;2023-09-18T08:43:49;100120.44;;;38.25;27.54
44103;BME280;29769;42.178;24.742;2023-09-18T08:46:36;100115.94;;;36.52;29.80
44103;BME280;29769;42.178;24.742;2023-09-18T08:49:22;100117.03;;;33.73;33.75
44103;BME280;29769;42.178;24.742;2023-09-18T08:52:07;100112.31;;;35.33;31.80
44103;BME280;29769;42.178;24.742;2023-09-18T08:54:52;100105.53;;;36.39;30.56
44103;BME280;29769;42.178;24.742;2023-09-18T08:57:38;100114.50;;;35.70;30.78
44103;BME280;29769;42.178;24.742;2023-09-18T09:00:24;100107.47;;;33.69;33.28
44103;BME280;29769;42.178;24.742;2023-09-18T09:03:08;100113.97;;;31.70;36.64
44103;BME280;29769;42.178;24.742;2023-09-18T09:05:54;100102.50;;;31.66;37.47
44103;BME280;29769;42.178;24.742;2023-09-18T09:08:39;100101.63;;;32.85;35.36
44103;BME280;29769;42.178;24.742;2023-09-18T09:11:24;100095.00;;;34.92;32.20
44103;BME280;29769;42.178;24.742;2023-09-18T09:14:12;100092.81;;;35.52;30.06
44103;BME280;29769;42.178;24.742;2023-09-18T09:17:01;100096.72;;;35.25;31.00
44103;BME280;29769;42.178;24.742;2023-09-18T09:19:47;100088.00;;;36.18;30.10
44103;BME280;29769;42.178;24.742;2023-09-18T09:22:31;100094.38;;;37.25;28.53
44103;BME280;29769;42.178;24.742;2023-09-18T09:25:22;100093.28;;;36.58;29.38
44103;BME280;29769;42.178;24.742;2023-09-18T09:28:07;100087.19;;;36.79;28.51
44103;BME280;29769;42.178;24.742;2023-09-18T09:30:52;100091.06;;;35.67;30.15
44103;BME280;29769;42.178;24.742;2023-09-18T09:33:51;100090.72;;;36.87;28.19
44103;BME280;29769;42.178;24.742;2023-09-18T09:36:53;100096.84;;;35.89;29.32
44103;BME280;29769;42.178;24.742;2023-09-18T09:39:47;100090.38;;;33.41;33.00
44103;BME280;29769;42.178;24.742;2023-09-18T09:42:37;100089.34;;;34.69;31.30
44103;BME280;29769;42.178;24.742;2023-09-18T09:45:22;100084.50;;;35.85;29.24
44103;BME280;29769;42.178;24.742;2023-09-18T09:48:06;100086.56;;;36.91;28.80
44103;BME280;29769;42.178;24.742;2023-09-18T09:50:52;100083.22;;;38.74;25.88
44103;BME280;29769;42.178;24.742;2023-09-18T09:53:43;100090.09;;;37.00;27.88
44103;BME280;29769;42.178;24.742;2023-09-18T09:56:42;100080.59;;;37.48;27.56
44103;BME280;29769;42.178;24.742;2023-09-18T09:59:27;100033.91;;;38.15;26.56
44103;BME280;29769;42.178;24.742;2023-09-18T10:02:13;100064.69;;;39.25;25.26
44103;BME280;29769;42.178;24.742;2023-09-18T10:05:03;100069.13;;;37.82;26.48
44103;BME280;29769;42.178;24.742;2023-09-18T10:07:48;100063.53;;;37.61;27.03
44103;BME280;29769;42.178;24.742;2023-09-18T10:10:35;100070.91;;;34.96;29.82
44103;BME280;29769;42.178;24.742;2023-09-18T10:16:05;100060.16;;;36.06;28.77
44103;BME280;29769;42.178;24.742;2023-09-18T10:19:37;100058.47;;;36.89;27.42
44103;BME280;29769;42.178;24.742;2023-09-18T10:22:06;100054.91;;;38.08;26.31
44103;BME280;29769;42.178;24.742;2023-09-18T10:24:57;100054.72;;;37.65;26.63
44103;BME280;29769;42.178;24.742;2023-09-18T10:27:45;100053.06;;;39.50;24.95
44103;BME280;29769;42.178;24.742;2023-09-18T10:30:31;100046.78;;;40.38;23.70
44103;BME280;29769;42.178;24.742;2023-09-18T10:33:17;100043.28;;;41.83;22.65
44103;BME280;29769;42.178;24.742;2023-09-18T10:36:02;100035.28;;;42.70;21.36
44103;BME280;29769;42.178;24.742;2023-09-18T10:38:48;100030.19;;;43.84;20.01
44103;BME280;29769;42.178;24.742;2023-09-18T10:41:36;100028.66;;;44.73;19.16
44103;BME280;29769;42.178;24.742;2023-09-18T10:44:22;100039.66;;;45.33;18.72
44103;BME280;29769;42.178;24.742;2023-09-18T10:47:08;100028.41;;;43.04;19.79
44103;BME280;29769;42.178;24.742;2023-09-18T10:49:53;100018.72;;;42.19;21.11
44103;BME280;29769;42.178;24.742;2023-09-18T10:52:42;100021.78;;;42.80;20.87
44103;BME280;29769;42.178;24.742;2023-09-18T10:55:27;100015.75;;;43.64;19.72
44103;BME280;29769;42.178;24.742;2023-09-18T10:58:12;100018.63;;;45.13;18.74
44103;BME280;29769;42.178;24.742;2023-09-18T11:01:06;100011.50;;;43.98;18.44
44103;BME280;29769;42.178;24.742;2023-09-18T11:03:51;100010.06;;;44.44;18.37
44103;BME280;29769;42.178;24.742;2023-09-18T11:09:43;100004.47;;;41.45;20.20
44103;BME280;29769;42.178;24.742;2023-09-18T11:12:43;99999.25;;;42.39;20.27
44103;BME280;29769;42.178;24.742;2023-09-18T11:15:32;99995.72;;;39.61;21.77
44103;BME280;29769;42.178;24.742;2023-09-18T11:18:17;99996.78;;;39.04;22.91
44103;BME280;29769;42.178;24.742;2023-09-18T11:21:07;99988.69;;;38.96;23.33
44103;BME280;29769;42.178;24.742;2023-09-18T11:23:59;99989.22;;;40.16;22.01
44103;BME280;29769;42.178;24.742;2023-09-18T11:26:45;99982.75;;;40.50;21.89
44103;BME280;29769;42.178;24.742;2023-09-18T11:29:31;99980.84;;;41.62;20.80
44103;BME280;29769;42.178;24.742;2023-09-18T11:32:54;99988.13;;;38.86;22.56
44103;BME280;29769;42.178;24.742;2023-09-18T11:35:32;99985.47;;;36.74;25.17
44103;BME280;29769;42.178;24.742;2023-09-18T11:38:17;99977.16;;;36.82;24.88
44103;BME280;29769;42.178;24.742;2023-09-18T11:41:22;99977.44;;;37.10;24.64
44103;BME280;29769;42.178;24.742;2023-09-18T11:46:54;99980.38;;;36.85;24.99
44103;BME280;29769;42.178;24.742;2023-09-18T11:49:40;99971.97;;;38.76;22.74
44103;BME280;29769;42.178;24.742;2023-09-18T11:52:27;99966.06;;;39.97;22.26
44103;BME280;29769;42.178;24.742;2023-09-18T11:55:13;99966.91;;;40.65;21.32
44103;BME280;29769;42.178;24.742;2023-09-18T11:57:57;99966.97;;;39.07;21.54
44103;BME280;29769;42.178;24.742;2023-09-18T12:00:46;99969.44;;;39.99;21.48
44103;BME280;29769;42.178;24.742;2023-09-18T12:03:30;99953.09;;;40.84;20.57
44103;BME280;29769;42.178;24.742;2023-09-18T12:06:15;99963.31;;;40.84;20.60
44103;BME280;29769;42.178;24.742;2023-09-18T12:09:00;99953.53;;;40.62;20.83
44103;BME280;29769;42.178;24.742;2023-09-18T12:11:45;99956.09;;;39.96;21.13
44103;BME280;29769;42.178;24.742;2023-09-18T12:14:32;99954.16;;;40.90;20.71
44103;BME280;29769;42.178;24.742;2023-09-18T12:17:16;99950.59;;;40.03;20.70
44103;BME280;29769;42.178;24.742;2023-09-18T12:20:01;99950.94;;;37.17;23.35
44103;BME280;29769;42.178;24.742;2023-09-18T12:22:49;99946.81;;;39.00;22.10
44103;BME280;29769;42.178;24.742;2023-09-18T12:25:33;99938.91;;;39.87;21.61
44103;BME280;29769;42.178;24.742;2023-09-18T12:28:18;99946.94;;;40.76;20.62
44103;BME280;29769;42.178;24.742;2023-09-18T12:31:03;99950.31;;;41.44;20.15
44103;BME280;29769;42.178;24.742;2023-09-18T12:33:50;99934.94;;;41.74;20.02
44103;BME280;29769;42.178;24.742;2023-09-18T12:36:35;99929.66;;;42.10;19.11
44103;BME280;29769;42.178;24.742;2023-09-18T12:39:20;99926.81;;;42.24;19.08
44103;BME280;29769;42.178;24.742;2023-09-18T12:42:05;99926.84;;;42.55;19.36
44103;BME280;29769;42.178;24.742;2023-09-18T12:44:50;99921.75;;;39.98;21.17
44103;BME280;29769;42.178;24.742;2023-09-18T12:47:35;99923.72;;;37.45;23.48
44103;BME280;29769;42.178;24.742;2023-09-18T12:50:24;99924.78;;;36.31;24.78
44103;BME280;29769;42.178;24.742;2023-09-18T12:53:09;99922.81;;;37.52;23.71
44103;BME280;29769;42.178;24.742;2023-09-18T12:55:54;99916.81;;;38.14;23.07
44103;BME280;29769;42.178;24.742;2023-09-18T12:58:42;99908.78;;;39.38;21.58
44103;BME280;29769;42.178;24.742;2023-09-18T13:01:27;99900.88;;;40.37;20.65
44103;BME280;29769;42.178;24.742;2023-09-18T13:04:11;99900.06;;;40.76;20.20
44103;BME280;29769;42.178;24.742;2023-09-18T13:07:06;99903.91;;;40.75;19.91
44103;BME280;29769;42.178;24.742;2023-09-18T13:12:47;99895.69;;;38.57;22.11
44103;BME280;29769;42.178;24.742;2023-09-18T13:15:34;99894.28;;;38.67;22.06
44103;BME280;29769;42.178;24.742;2023-09-18T13:18:19;99895.81;;;37.70;22.09
44103;BME280;29769;42.178;24.742;2023-09-18T13:21:10;99893.50;;;37.01;23.44
44103;BME280;29769;42.178;24.742;2023-09-18T13:23:55;99891.50;;;36.94;23.29
44103;BME280;29769;42.178;24.742;2023-09-18T13:26:40;99887.50;;;37.85;22.28
44103;BME280;29769;42.178;24.742;2023-09-18T13:29:24;99888.06;;;38.16;22.17
44103;BME280;29769;42.178;24.742;2023-09-18T13:32:09;99885.81;;;38.90;21.77
44103;BME280;29769;42.178;24.742;2023-09-18T13:34:55;99883.22;;;39.17;21.27
44103;BME280;29769;42.178;24.742;2023-09-18T13:37:40;99884.72;;;38.63;21.56
44103;BME280;29769;42.178;24.742;2023-09-18T13:40:24;99886.78;;;38.12;21.86
44103;BME280;29769;42.178;24.742;2023-09-18T13:43:09;99876.50;;;38.42;21.30
44103;BME280;29769;42.178;24.742;2023-09-18T13:45:54;99881.03;;;37.42;21.62
44103;BME280;29769;42.178;24.742;2023-09-18T13:48:40;99868.72;;;38.46;21.13
44103;BME280;29769;42.178;24.742;2023-09-18T13:51:24;99870.72;;;37.44;21.24
44103;BME280;29769;42.178;24.742;2023-09-18T13:54:09;99859.56;;;37.60;21.56
44103;BME280;29769;42.178;24.742;2023-09-18T13:56:53;99858.63;;;37.38;21.83
44103;BME280;29769;42.178;24.742;2023-09-18T13:59:39;99863.34;;;36.03;22.83
44103;BME280;29769;42.178;24.742;2023-09-18T14:02:24;99862.56;;;36.40;22.82
44103;BME280;29769;42.178;24.742;2023-09-18T14:05:11;99860.47;;;35.35;23.36
44103;BME280;29769;42.178;24.742;2023-09-18T14:07:56;99864.69;;;34.98;23.50
44103;BME280;29769;42.178;24.742;2023-09-18T14:10:44;99858.97;;;35.63;23.27
44103;BME280;29769;42.178;24.742;2023-09-18T14:13:28;99856.31;;;35.00;24.16
44103;BME280;29769;42.178;24.742;2023-09-18T14:16:13;99856.56;;;34.17;24.93
44103;BME280;29769;42.178;24.742;2023-09-18T14:18:59;99847.66;;;34.64;24.57
44103;BME280;29769;42.178;24.742;2023-09-18T14:21:44;99848.78;;;35.49;23.63
44103;BME280;29769;42.178;24.742;2023-09-18T14:24:29;99848.31;;;33.85;24.16
44103;BME280;29769;42.178;24.742;2023-09-18T14:27:14;99845.69;;;32.40;25.77